Time;durP1;ratioP1;P1;durP2;ratioP2;P2;SDS_P1;SDS_P2;PMS_P1;PMS_P2;Temp;Humidity;BMP_temperature;BMP_pressure;BME280_temperature;BME280_humidity;BME280_pressure;Samples;Min_cycle;Max_cycle;Signal;HPM_P1;HPM_P2
2023/02/08 00:00:49;;;;;;;24.08;12.95;;;;;;;-2.78;100.00;102608.84;5049358;28;20212;-73
2023/02/08 00:03:15;;;;;;;21.08;12.10;;;;;;;-3.01;100.00;102607.81;5053721;28;20258;-72
2023/02/08 00:05:44;;;;;;;19.63;13.45;;;;;;;-2.84;100.00;102607.69;5054555;28;20211;-73
2023/02/08 00:08:10;;;;;;;24.00;13.65;;;;;;;-2.85;100.00;102603.22;5053217;28;20284;-73
2023/02/08 00:10:37;;;;;;;22.67;12.82;;;;;;;-2.86;100.00;102606.69;5049538;28;20200;-73
2023/02/08 00:13:03;;;;;;;20.00;12.43;;;;;;;-2.78;100.00;102606.22;5041226;28;20313;-73
2023/02/08 00:15:30;;;;;;;21.00;12.20;;;;;;;-2.91;100.00;102595.94;5038372;28;20205;-73
2023/02/08 00:17:57;;;;;;;18.38;10.93;;;;;;;-2.83;100.00;102598.91;5037745;28;20310;-75
2023/02/08 00:20:23;;;;;;;19.25;11.50;;;;;;;-2.83;100.00;102598.91;5044702;28;20201;-73
2023/02/08 00:22:51;;;;;;;19.63;12.00;;;;;;;-2.89;100.00;102596.91;5042232;28;20211;-74
2023/02/08 00:25:18;;;;;;;23.17;12.65;;;;;;;-2.91;100.00;102590.69;5055201;28;20247;-73
2023/02/08 00:27:44;;;;;;;17.73;11.55;;;;;;;-2.97;100.00;102596.56;5038559;28;20307;-72
2023/02/08 00:30:12;;;;;;;18.50;12.40;;;;;;;-3.12;100.00;102587.06;5039604;28;20215;-73
2023/02/08 00:32:38;;;;;;;18.35;12.10;;;;;;;-3.29;100.00;102596.84;5038884;28;20197;-73
2023/02/08 00:35:05;;;;;;;25.75;13.10;;;;;;;-3.17;100.00;102598.28;5037768;28;20212;-72
2023/02/08 00:37:31;;;;;;;22.65;13.43;;;;;;;-3.17;100.00;102595.66;5036676;28;20227;-73
2023/02/08 00:40:01;;;;;;;22.90;13.15;;;;;;;-3.21;100.00;102604.28;5037266;28;20207;-72
2023/02/08 00:42:29;;;;;;;22.00;12.20;;;;;;;-3.17;100.00;102607.94;5037136;28;20232;-72
2023/02/08 00:44:55;;;;;;;17.20;10.93;;;;;;;-3.22;100.00;102605.09;5036184;28;20208;-71
2023/02/08 00:47:22;;;;;;;16.83;12.32;;;;;;;-3.29;100.00;102596.84;5037189;28;20229;-74
2023/02/08 00:49:48;;;;;;;24.80;11.63;;;;;;;-3.19;100.00;102597.34;5036082;28;20568;-74
2023/02/08 00:52:15;;;;;;;21.73;11.60;;;;;;;-3.19;100.00;102607.88;5036489;28;20622;-73
2023/02/08 00:54:41;;;;;;;18.73;11.32;;;;;;;-3.31;100.00;102603.78;5037150;28;20210;-73
2023/02/08 00:57:09;;;;;;;21.67;11.30;;;;;;;-3.24;100.00;102605.84;5056598;22;20236;-74
2023/02/08 00:59:36;;;;;;;14.57;10.60;;;;;;;-3.38;100.00;102605.22;5057073;28;20192;-73
2023/02/08 01:02:02;;;;;;;18.10;11.98;;;;;;;-3.49;100.00;102609.06;5058639;28;20323;-73
2023/02/08 01:04:29;;;;;;;16.35;10.60;;;;;;;-3.39;100.00;102606.06;5064127;28;20283;-72
2023/02/08 01:06:56;;;;;;;20.92;10.07;;;;;;;-3.37;100.00;102607.00;5054994;28;20709;-72
2023/02/08 01:09:22;;;;;;;15.75;10.65;;;;;;;-3.42;100.00;102605.91;5039775;28;20204;-72
2023/02/08 01:11:49;;;;;;;15.20;10.00;;;;;;;-3.32;100.00;102605.50;5039683;28;20207;-74
2023/02/08 01:14:17;;;;;;;17.88;9.85;;;;;;;-3.51;100.00;102605.47;5035947;28;20215;-73
2023/02/08 01:16:43;;;;;;;17.95;10.00;;;;;;;-3.67;100.00;102610.00;5037017;28;20220;-73
2023/02/08 01:19:10;;;;;;;18.05;11.98;;;;;;;-3.54;100.00;102606.22;5036509;28;20201;-73
2023/02/08 01:21:40;;;;;;;14.73;10.13;;;;;;;-3.69;100.00;102602.84;5037331;28;20221;-74
2023/02/08 01:24:07;;;;;;;17.95;9.93;;;;;;;-3.62;100.00;102604.94;5017673;28;20210;-73
2023/02/08 01:26:34;;;;;;;15.05;9.60;;;;;;;-3.62;100.00;102603.25;5038450;28;20714;-73
2023/02/08 01:29:01;;;;;;;21.08;10.88;;;;;;;-3.70;100.00;102609.84;5035927;28;20690;-73
2023/02/08 01:31:31;;;;;;;15.50;10.00;;;;;;;-3.74;100.00;102607.91;5036449;28;20208;-74
2023/02/08 01:33:58;;;;;;;16.23;10.43;;;;;;;-3.83;100.00;102595.19;5036169;28;20207;-73
2023/02/08 01:36:26;;;;;;;14.93;11.00;;;;;;;-3.91;100.00;102591.28;5016355;28;20613;-73
2023/02/08 01:38:53;;;;;;;16.98;10.43;;;;;;;-3.84;100.00;102595.13;5022534;28;20206;-73
2023/02/08 01:41:22;;;;;;;23.23;11.38;;;;;;;-3.84;100.00;102596.03;5036581;28;20208;-75
2023/02/08 01:44:02;;;;;;;22.73;11.98;;;;;;;-3.92;100.00;102592.09;5036202;28;20220;-73
2023/02/08 01:46:31;;;;;;;17.08;11.60;;;;;;;-4.02;100.00;102582.88;5036578;28;20225;-73
2023/02/08 01:49:00;;;;;;;15.02;10.50;;;;;;;-3.90;100.00;102589.56;5036101;28;20217;-73
2023/02/08 01:51:30;;;;;;;15.73;10.93;;;;;;;-3.85;100.00;102581.03;5035655;28;20188;-73
2023/02/08 01:53:58;;;;;;;14.90;9.80;;;;;;;-3.80;100.00;102582.19;5036081;28;20209;-73
2023/02/08 01:56:28;;;;;;;13.48;9.77;;;;;;;-3.86;100.00;102588.88;5036119;28;20201;-72
2023/02/08 01:58:59;;;;;;;17.25;10.95;;;;;;;-3.84;100.00;102584.59;5035638;28;20188;-73
2023/02/08 02:01:29;;;;;;;18.98;10.50;;;;;;;-3.68;100.00;102580.97;5035302;28;20192;-72
2023/02/08 02:04:00;;;;;;;14.48;11.05;;;;;;;-3.62;100.00;102586.50;5032285;28;20207;-73
2023/02/08 02:06:31;;;;;;;12.32;10.25;;;;;;;-3.70;100.00;102583.53;5035198;28;20228;-74
2023/02/08 02:09:05;;;;;;;13.25;9.90;;;;;;;-3.85;100.00;102583.66;5035152;28;20296;-76
2023/02/08 02:11:31;;;;;;;19.20;11.00;;;;;;;-3.96;100.00;102589.25;5035596;28;20192;-73
2023/02/08 02:13:58;;;;;;;19.63;12.65;;;;;;;-3.92;100.00;102578.03;5034992;28;20211;-73
2023/02/08 02:16:25;;;;;;;15.90;10.15;;;;;;;-3.94;100.00;102584.97;5034335;28;20681;-74
2023/02/08 02:18:52;;;;;;;19.30;10.02;;;;;;;-3.90;100.00;102585.19;5034709;28;20204;-73
2023/02/08 02:21:40;;;;;;;18.30;10.77;;;;;;;-4.07;100.00;102588.72;5035205;28;20591;-74
2023/02/08 02:24:37;;;;;;;17.52;11.13;;;;;;;-3.95;100.00;102596.34;5030091;28;20559;-73
2023/02/08 02:27:22;;;;;;;16.63;10.45;;;;;;;-3.86;100.00;102587.16;5034984;28;20259;-74
2023/02/08 02:30:19;;;;;;;21.95;12.13;;;;;;;-4.21;100.00;102590.66;5034621;28;20192;-74
2023/02/08 02:32:59;;;;;;;27.10;12.50;;;;;;;-4.21;100.00;102588.03;5023009;28;20199;-73
2023/02/08 02:35:35;;;;;;;16.85;10.95;;;;;;;-4.31;100.00;102591.94;5039817;28;20192;-73
2023/02/08 02:38:10;;;;;;;18.50;12.30;;;;;;;-4.28;100.00;102586.81;5042027;28;20246;-73
2023/02/08 02:40:46;;;;;;;17.33;11.13;;;;;;;-4.18;100.00;102588.22;5039327;28;20184;-72
2023/02/08 02:46:07;;;;;;;17.05;11.55;;;;;;;-4.18;100.00;102582.94;5043694;28;20210;-72
2023/02/08 02:48:42;;;;;;;23.73;12.05;;;;;;;-4.18;100.00;102580.31;5036775;28;20225;-72
2023/02/08 02:51:12;;;;;;;17.42;11.38;;;;;;;-4.15;100.00;102582.19;5035223;28;20227;-72
2023/02/08 02:53:48;;;;;;;16.38;10.50;;;;;;;-4.10;100.00;102576.31;5034740;28;20196;-72
2023/02/08 02:56:19;;;;;;;21.27;11.00;;;;;;;-4.05;100.00;102568.63;5035176;28;20192;-74
2023/02/08 02:58:45;;;;;;;15.93;10.45;;;;;;;-4.35;100.00;102571.56;5034804;28;20199;-72
2023/02/08 03:01:12;;;;;;;16.48;10.93;;;;;;;-4.21;100.00;102577.50;5035335;28;20590;-73
2023/02/08 03:03:40;;;;;;;19.98;11.77;;;;;;;-4.34;100.00;102576.00;5035162;28;20839;-73
2023/02/08 03:06:11;;;;;;;15.57;11.05;;;;;;;-4.23;100.00;102566.94;5035306;28;20248;-73
2023/02/08 03:09:03;;;;;;;19.92;11.48;;;;;;;-4.24;100.00;102566.84;5035359;28;20307;-74
2023/02/08 03:11:32;;;;;;;17.10;12.57;;;;;;;-4.22;100.00;102571.34;5034937;28;20191;-72
2023/02/08 03:14:30;;;;;;;17.35;10.73;;;;;;;-4.26;100.00;102568.50;5035375;28;20200;-72
2023/02/08 03:17:19;;;;;;;17.50;10.93;;;;;;;-4.22;100.00;102567.81;4992532;28;20221;-73
2023/02/08 03:20:01;;;;;;;19.08;10.95;;;;;;;-4.13;100.00;102572.63;4992860;28;20209;-73
2023/02/08 03:22:39;;;;;;;18.95;10.63;;;;;;;-4.19;100.00;102571.47;4992626;28;20676;-73
2023/02/08 03:25:11;;;;;;;19.38;11.68;;;;;;;-4.17;100.00;102571.56;4993335;28;20592;-72
2023/02/08 03:27:44;;;;;;;17.42;10.82;;;;;;;-4.15;100.00;102566.41;4992245;28;20230;-72
2023/02/08 03:30:16;;;;;;;21.35;10.43;;;;;;;-4.17;100.00;102566.31;5000708;28;20719;-74
2023/02/08 03:32:47;;;;;;;21.75;11.88;;;;;;;-4.15;100.00;102571.66;5000079;28;20195;-74
2023/02/08 03:35:21;;;;;;;19.25;11.55;;;;;;;-4.10;100.00;102578.94;4999482;28;20580;-73
2023/02/08 03:37:53;;;;;;;16.98;12.02;;;;;;;-4.14;100.00;102573.44;4998264;28;20226;-74
2023/02/08 03:40:25;;;;;;;18.15;11.82;;;;;;;-4.19;100.00;102573.22;4997190;28;20243;-73
2023/02/08 03:42:54;;;;;;;19.92;11.40;;;;;;;-4.09;100.00;102577.19;4996350;28;20221;-73
2023/02/08 03:45:25;;;;;;;18.30;12.13;;;;;;;-4.22;100.00;102583.63;5001124;28;20215;-72
2023/02/08 03:47:54;;;;;;;20.17;11.63;;;;;;;-4.19;100.00;102579.38;5001874;28;20321;-72
2023/02/08 03:50:23;;;;;;;20.33;11.95;;;;;;;-4.21;100.00;102582.78;5001168;28;20216;-73
2023/02/08 03:52:52;;;;;;;18.77;10.73;;;;;;;-4.07;100.00;102587.00;5000397;28;20209;-73
2023/02/08 03:55:22;;;;;;;15.50;11.15;;;;;;;-4.13;100.00;102584.06;5038644;28;20209;-74
2023/02/08 03:57:54;;;;;;;19.42;10.93;;;;;;;-4.23;100.00;102573.88;5037464;28;20224;-73
2023/02/08 04:00:21;;;;;;;19.00;10.85;;;;;;;-4.23;100.00;102577.44;5037869;28;20222;-74
2023/02/08 04:02:55;;;;;;;18.02;11.18;;;;;;;-4.10;100.00;102576.31;5037534;28;20197;-73
2023/02/08 04:05:24;;;;;;;19.02;10.90;;;;;;;-4.13;100.00;102581.44;5038191;28;20180;-73
2023/02/08 04:07:50;;;;;;;19.63;11.70;;;;;;;-4.36;100.00;102580.28;5036695;28;20593;-73
2023/02/08 04:10:17;;;;;;;17.88;11.57;;;;;;;-4.40;100.00;102576.59;5037546;28;20200;-75
2023/02/08 04:12:44;;;;;;;17.85;12.07;;;;;;;-4.46;100.00;102581.53;5037358;28;20205;-73
2023/02/08 04:15:11;;;;;;;20.95;11.60;;;;;;;-4.34;100.00;102581.28;5036293;28;20235;-72
2023/02/08 04:17:37;;;;;;;18.00;11.43;;;;;;;-4.36;100.00;102577.66;5036968;28;20224;-73
2023/02/08 04:20:05;;;;;;;17.50;12.00;;;;;;;-4.20;100.00;102577.59;5037398;28;20208;-75
2023/02/08 04:22:33;;;;;;;20.17;11.40;;;;;;;-4.14;100.00;102584.88;5036664;28;20200;-73
2023/02/08 04:24:59;;;;;;;20.60;11.98;;;;;;;-4.06;100.00;102574.75;5037683;28;20200;-73
2023/02/08 04:27:26;;;;;;;15.73;11.10;;;;;;;-4.07;100.00;102579.13;5038821;28;20235;-73
2023/02/08 04:29:53;;;;;;;19.55;12.25;;;;;;;-4.07;100.00;102580.81;5038750;28;20200;-74
2023/02/08 04:32:19;;;;;;;16.90;10.15;;;;;;;-4.12;100.00;102577.06;5037740;28;20268;-74
2023/02/08 04:34:46;;;;;;;17.80;11.93;;;;;;;-4.17;100.00;102582.09;5038356;28;20212;-74
2023/02/08 04:37:12;;;;;;;16.00;10.68;;;;;;;-4.22;100.00;102576.59;5038637;28;20216;-74
2023/02/08 04:39:40;;;;;;;17.65;11.18;;;;;;;-4.37;100.00;102580.22;5037997;28;20197;-73
2023/02/08 04:42:08;;;;;;;19.77;11.40;;;;;;;-4.33;100.00;102579.53;5040705;28;20236;-75
2023/02/08 04:44:35;;;;;;;19.13;11.77;;;;;;;-4.36;100.00;102576.72;5040687;28;20243;-74
2023/02/08 04:47:01;;;;;;;17.95;12.30;;;;;;;-4.32;100.00;102566.47;5040261;28;20256;-74
2023/02/08 04:49:28;;;;;;;17.10;11.45;;;;;;;-4.56;100.00;102579.28;5039368;28;20286;-73
2023/02/08 04:51:54;;;;;;;38.58;23.70;;;;;;;-4.40;100.00;102571.31;5039760;28;20219;-74
2023/02/08 04:54:21;;;;;;;55.75;26.98;;;;;;;-4.42;100.00;102569.44;5038050;28;20208;-75
2023/02/08 04:56:49;;;;;;;95.90;44.50;;;;;;;-4.36;100.00;102566.22;5037500;28;20228;-73
2023/02/08 04:59:15;;;;;;;32.33;18.30;;;;;;;-4.37;100.00;102565.31;5039283;28;20232;-74
2023/02/08 05:01:42;;;;;;;23.35;12.50;;;;;;;-4.40;100.00;102549.38;5038589;28;20215;-73
2023/02/08 05:04:08;;;;;;;22.50;12.50;;;;;;;-4.33;100.00;102556.75;5038063;28;20208;-73
2023/02/08 05:06:35;;;;;;;19.58;12.63;;;;;;;-4.35;100.00;102552.25;5037058;28;20262;-74
2023/02/08 05:09:02;;;;;;;21.60;13.27;;;;;;;-4.43;100.00;102552.78;5041130;28;20268;-72
2023/02/08 05:11:28;;;;;;;16.90;11.70;;;;;;;-4.43;100.00;102552.78;5035749;28;20204;-73
2023/02/08 05:13:56;;;;;;;38.08;19.35;;;;;;;-4.26;100.00;102547.44;5035763;28;20227;-73
2023/02/08 05:16:23;;;;;;;24.42;14.30;;;;;;;-4.36;100.00;102556.63;5036260;28;20195;-74
2023/02/08 05:18:52;;;;;;;18.95;12.85;;;;;;;-4.30;100.00;102559.53;5035386;28;20228;-73
2023/02/08 05:21:19;;;;;;;25.15;12.20;;;;;;;-4.23;100.00;102555.47;5036015;28;20681;-77
2023/02/08 05:23:45;;;;;;;19.75;13.27;;;;;;;-4.32;100.00;102555.94;5035849;28;20201;-74
2023/02/08 05:26:12;;;;;;;22.52;14.40;;;;;;;-4.37;100.00;102553.91;5037245;28;20205;-73
2023/02/08 05:28:38;;;;;;;18.60;11.90;;;;;;;-4.30;100.00;102556.00;5035747;28;20236;-73
2023/02/08 05:31:11;;;;;;;20.00;11.32;;;;;;;-4.33;100.00;102555.84;5036545;28;20600;-73
2023/02/08 05:33:38;;;;;;;18.00;11.65;;;;;;;-4.31;100.00;102555.09;5035638;28;20201;-72
2023/02/08 05:36:05;;;;;;;21.42;12.65;;;;;;;-4.37;100.00;102549.53;5036560;28;20208;-74
2023/02/08 05:38:31;;;;;;;19.27;11.20;;;;;;;-4.36;100.00;102555.69;5036733;28;20311;-73
2023/02/08 05:40:58;;;;;;;20.33;12.80;;;;;;;-4.32;100.00;102557.66;5040694;28;20279;-73
2023/02/08 05:43:25;;;;;;;25.00;11.93;;;;;;;-4.32;100.00;102557.66;5039073;28;20235;-73
2023/02/08 05:45:52;;;;;;;20.48;11.80;;;;;;;-4.13;100.00;102559.47;5024094;28;20204;-73
2023/02/08 05:48:20;;;;;;;18.67;11.32;;;;;;;-4.23;100.00;102553.78;5030846;28;20232;-73
2023/02/08 05:50:46;;;;;;;17.45;11.77;;;;;;;-4.13;100.00;102560.38;5022656;28;20221;-74
2023/02/08 05:53:13;;;;;;;21.27;12.70;;;;;;;-4.12;100.00;102558.63;5036754;28;20238;-74
2023/02/08 05:55:39;;;;;;;19.00;11.55;;;;;;;-4.17;100.00;102562.78;5036333;28;20291;-75
2023/02/08 05:58:06;;;;;;;18.33;12.40;;;;;;;-4.18;100.00;102561.88;5035190;28;20348;-74
2023/02/08 06:00:33;;;;;;;20.65;12.60;;;;;;;-4.20;100.00;102560.91;5033589;28;20279;-75
2023/02/08 06:02:59;;;;;;;25.15;15.52;;;;;;;-4.17;100.00;102570.69;5036351;28;20202;-73
2023/02/08 06:05:27;;;;;;;37.08;20.90;;;;;;;-4.26;100.00;102571.13;5035848;28;20206;-74
2023/02/08 06:07:53;;;;;;;25.58;13.90;;;;;;;-4.30;100.00;102572.69;5035357;28;20292;-75
2023/02/08 06:10:20;;;;;;;20.77;13.02;;;;;;;-4.17;100.00;102562.78;5035274;28;20260;-74
2023/02/08 06:12:47;;;;;;;21.15;12.73;;;;;;;-4.09;100.00;102574.56;5036611;28;20199;-76
2023/02/08 06:15:13;;;;;;;15.32;11.30;;;;;;;-4.06;100.00;102578.28;5034759;28;20254;-72
2023/02/08 06:17:40;;;;;;;88.38;40.85;;;;;;;-4.09;100.00;102575.50;5037449;28;20222;-75
2023/02/08 06:20:07;;;;;;;37.03;20.95;;;;;;;-4.06;100.00;102577.38;5043552;28;20219;-71
2023/02/08 06:22:35;;;;;;;24.42;12.80;;;;;;;-3.99;100.00;102584.75;5046460;28;20534;-73
2023/02/08 06:25:04;;;;;;;20.38;12.52;;;;;;;-4.01;100.00;102587.28;5048538;28;20208;-73
2023/02/08 06:27:31;;;;;;;23.55;13.32;;;;;;;-3.97;100.00;102588.34;5046647;28;20230;-76
2023/02/08 06:29:57;;;;;;;21.77;13.43;;;;;;;-3.87;100.00;102595.84;5040797;28;20208;-73
2023/02/08 06:32:24;;;;;;;23.10;12.65;;;;;;;-3.90;100.00;102590.44;5038002;28;20680;-74
2023/02/08 06:34:51;;;;;;;23.95;14.00;;;;;;;-3.87;100.00;102594.97;5036701;28;20200;-74
2023/02/08 06:37:18;;;;;;;19.67;13.50;;;;;;;-3.93;100.00;102594.69;5036399;28;20247;-74
2023/02/08 06:39:46;;;;;;;28.42;12.93;;;;;;;-3.83;100.00;102592.56;5036359;28;20211;-74
2023/02/08 06:42:12;;;;;;;24.45;12.20;;;;;;;-3.78;100.00;102598.03;5036461;28;20654;-73
2023/02/08 06:44:39;;;;;;;21.65;13.25;;;;;;;-3.73;100.00;102603.53;5036067;28;20202;-74
2023/02/08 06:47:05;;;;;;;28.73;12.70;;;;;;;-3.69;100.00;102606.38;5017381;28;20231;-73
2023/02/08 06:49:32;;;;;;;26.10;13.85;;;;;;;-3.64;100.00;102599.63;5015477;28;20572;-72
2023/02/08 06:51:59;;;;;;;23.70;12.52;;;;;;;-3.57;100.00;102601.72;5037384;28;20256;-72
2023/02/08 06:54:25;;;;;;;19.40;12.75;;;;;;;-3.52;100.00;102598.41;5052722;28;20306;-75
2023/02/08 06:56:53;;;;;;;19.30;12.25;;;;;;;-3.46;100.00;102593.41;5037525;28;20602;-74
2023/02/08 06:59:20;;;;;;;22.75;13.65;;;;;;;-3.37;100.00;102593.81;5036298;28;20211;-75
2023/02/08 07:01:46;;;;;;;25.52;13.88;;;;;;;-3.37;100.00;102601.72;5041539;28;20204;-72
2023/02/08 07:04:13;;;;;;;22.02;13.25;;;;;;;-3.31;100.00;102594.13;5049687;28;20291;-74
2023/02/08 07:06:39;;;;;;;19.77;12.27;;;;;;;-3.21;100.00;102593.72;5052271;28;20255;-75
2023/02/08 07:09:06;;;;;;;24.20;12.32;;;;;;;-3.17;100.00;102595.66;5051548;28;20300;-76
2023/02/08 07:11:33;;;;;;;20.15;13.07;;;;;;;-3.14;100.00;102597.56;5041818;28;20200;-75
2023/02/08 07:14:01;;;;;;;21.40;12.30;;;;;;;-3.19;100.00;102588.50;5026675;28;20214;-74
2023/02/08 07:16:27;;;;;;;24.25;14.00;;;;;;;-3.06;100.00;102598.78;5041194;28;20299;-74
2023/02/08 07:18:54;;;;;;;19.35;14.07;;;;;;;-3.00;100.00;102601.69;5041676;28;20284;-74
2023/02/08 07:21:21;;;;;;;18.05;12.85;;;;;;;-2.79;100.00;102588.56;5043187;28;20204;-75
2023/02/08 07:23:47;;;;;;;21.85;13.48;;;;;;;-2.55;100.00;102595.78;5040555;28;20222;-75
2023/02/08 07:26:14;;;;;;;21.33;15.63;;;;;;;-2.47;100.00;102604.00;5042973;28;20239;-74
2023/02/08 07:28:41;;;;;;;22.98;13.45;;;;;;;-2.11;100.00;102594.09;5040010;28;20258;-75
2023/02/08 07:31:11;;;;;;;19.00;12.52;;;;;;;-1.51;100.00;102593.88;5037535;28;20663;-74
2023/02/08 07:33:38;;;;;;;21.30;12.70;;;;;;;-0.51;100.00;102597.59;5036435;28;20193;-73
2023/02/08 07:36:06;;;;;;;20.30;12.38;;;;;;;0.28;100.00;102588.75;5038710;28;20205;-76
2023/02/08 07:38:33;;;;;;;21.88;13.07;;;;;;;0.91;100.00;102585.38;5038287;28;20251;-78
2023/02/08 07:41:01;;;;;;;22.10;12.88;;;;;;;1.17;100.00;102586.09;5038140;28;20292;-76
2023/02/08 07:43:27;;;;;;;19.42;12.15;;;;;;;1.60;100.00;102584.63;5037539;28;20599;-75
2023/02/08 07:46:09;;;;;;;23.73;13.77;;;;;;;2.29;100.00;102583.72;5038719;28;20204;-75
2023/02/08 07:48:37;;;;;;;18.67;13.18;;;;;;;2.68;100.00;102585.47;5034534;28;20296;-73
2023/02/08 07:51:04;;;;;;;23.23;12.40;;;;;;;3.78;100.00;102572.56;5035540;28;20327;-74
2023/02/08 07:53:31;;;;;;;21.17;12.68;;;;;;;4.54;100.00;102574.63;5037266;28;20228;-73
2023/02/08 07:55:58;;;;;;;19.70;13.35;;;;;;;4.89;89.96;102571.53;5035764;28;20203;-74
2023/02/08 07:58:25;;;;;;;22.00;14.43;;;;;;;5.26;86.97;102575.53;5034649;28;20236;-74
2023/02/08 08:00:51;;;;;;;18.38;12.75;;;;;;;6.33;81.29;102558.69;5035476;28;20208;-75
2023/02/08 08:03:19;;;;;;;21.02;14.80;;;;;;;5.92;76.37;102569.94;5034199;28;20208;-74
2023/02/08 08:05:46;;;;;;;21.23;14.00;;;;;;;6.23;73.32;102580.03;5034030;28;20220;-73
2023/02/08 08:08:13;;;;;;;17.63;13.07;;;;;;;7.18;66.28;102571.63;5033448;28;20684;-74
2023/02/08 08:10:40;;;;;;;17.30;12.90;;;;;;;7.62;61.20;102581.59;5034418;28;20220;-74
2023/02/08 08:13:07;;;;;;;17.05;13.27;;;;;;;8.51;57.39;102576.22;5033326;28;20210;-74
2023/02/08 08:15:33;;;;;;;24.55;12.60;;;;;;;9.14;52.44;102585.88;5036303;28;20206;-73
2023/02/08 08:18:00;;;;;;;17.17;13.57;;;;;;;9.58;50.31;102582.03;5036357;28;20316;-74
2023/02/08 08:20:28;;;;;;;17.25;11.88;;;;;;;9.05;50.72;102588.59;5037859;28;20201;-74
2023/02/08 08:22:55;;;;;;;15.45;12.45;;;;;;;9.38;51.25;102582.13;5038128;28;20202;-74
2023/02/08 08:25:21;;;;;;;17.48;11.70;;;;;;;10.13;48.83;102575.31;5038426;28;20292;-75
2023/02/08 08:27:48;;;;;;;18.95;12.35;;;;;;;10.03;47.88;102572.69;5039264;28;20236;-74
2023/02/08 08:30:16;;;;;;;16.92;13.13;;;;;;;10.92;46.25;102583.50;5059722;28;20250;-75
2023/02/08 08:32:43;;;;;;;15.18;12.05;;;;;;;10.01;47.57;102570.94;5059762;28;20230;-74
2023/02/08 08:35:10;;;;;;;18.48;13.50;;;;;;;10.97;45.62;102577.16;5060025;28;20411;-74
2023/02/08 08:37:38;;;;;;;21.30;15.88;;;;;;;11.71;42.95;102578.81;5059273;28;20691;-76
2023/02/08 08:40:06;;;;;;;25.45;16.90;;;;;;;12.31;42.14;102585.97;5059897;28;20205;-76
2023/02/08 08:42:33;;;;;;;20.80;15.02;;;;;;;12.04;41.34;102571.13;5059778;28;20210;-76
2023/02/08 08:45:00;;;;;;;15.48;13.13;;;;;;;12.32;39.36;102571.53;5036791;28;20248;-74
2023/02/08 08:47:26;;;;;;;16.15;12.98;;;;;;;13.05;38.37;102580.03;5022809;28;20322;-75
2023/02/08 08:49:53;;;;;;;12.70;10.85;;;;;;;13.60;36.55;102583.34;5022053;28;20294;-74
2023/02/08 08:52:20;;;;;;;14.95;11.32;;;;;;;14.15;35.85;102568.44;5021111;28;20238;-75
2023/02/08 08:54:47;;;;;;;15.10;11.95;;;;;;;14.17;35.03;102566.56;5020083;28;20207;-74
2023/02/08 08:57:15;;;;;;;13.57;12.05;;;;;;;13.88;35.44;102572.72;5019349;28;20255;-74
2023/02/08 08:59:42;;;;;;;12.82;10.85;;;;;;;14.00;34.55;102576.97;5018226;28;20191;-75
2023/02/08 09:02:11;;;;;;;17.65;11.80;;;;;;;14.90;33.55;102567.34;5018019;28;20208;-73
2023/02/08 09:04:39;;;;;;;12.45;10.35;;;;;;;14.42;33.26;102574.06;5019123;28;20203;-73
2023/02/08 09:07:06;;;;;;;14.10;11.40;;;;;;;14.49;32.98;102577.50;5018838;28;20223;-74
2023/02/08 09:09:33;;;;;;;14.07;11.55;;;;;;;13.76;33.64;102579.34;5017620;28;20243;-74
2023/02/08 09:12:02;;;;;;;15.32;11.93;;;;;;;14.44;33.00;102584.88;5018425;28;20208;-73
2023/02/08 09:14:29;;;;;;;14.63;11.25;;;;;;;14.51;32.39;102583.78;5018894;28;20210;-74
2023/02/08 09:16:55;;;;;;;14.25;11.18;;;;;;;15.25;31.27;102576.28;5021074;28;20215;-74
2023/02/08 09:19:22;;;;;;;15.85;11.75;;;;;;;15.13;31.64;102573.00;5022491;28;20287;-73
2023/02/08 09:21:48;;;;;;;18.00;12.60;;;;;;;15.94;30.86;102575.00;5022991;28;20248;-74
2023/02/08 09:24:16;;;;;;;14.40;11.65;;;;;;;15.54;30.85;102570.81;5032000;28;20450;-74
2023/02/08 09:26:44;;;;;;;15.85;12.15;;;;;;;15.55;30.18;102575.31;5027723;28;20235;-73
2023/02/08 09:29:12;;;;;;;15.20;12.20;;;;;;;16.21;29.67;102574.97;5024057;28;20331;-74
2023/02/08 09:31:39;;;;;;;20.63;11.70;;;;;;;16.46;29.38;102570.47;5018574;28;20443;-73
2023/02/08 09:34:06;;;;;;;14.87;12.00;;;;;;;17.12;28.83;102586.25;5017893;28;20448;-75
2023/02/08 09:36:35;;;;;;;14.70;12.20;;;;;;;16.57;29.06;102577.34;5017624;28;20455;-74
2023/02/08 09:39:05;;;;;;;14.97;11.90;;;;;;;16.89;28.62;102570.75;5016858;28;20440;-74
2023/02/08 09:42:00;;;;;;;16.60;12.10;;;;;;;17.43;27.74;102577.72;5017094;28;20425;-74
2023/02/08 09:44:34;;;;;;;14.40;11.90;;;;;;;17.80;27.49;102569.94;5016864;28;20879;-74
2023/02/08 09:47:06;;;;;;;16.70;12.00;;;;;;;15.87;29.09;102572.53;5015691;28;20480;-74
2023/02/08 09:49:36;;;;;;;16.00;12.87;;;;;;;16.02;29.24;102572.91;5016501;28;20997;-73
2023/02/08 09:52:09;;;;;;;15.30;12.83;;;;;;;15.75;29.18;102577.41;5017425;28;20948;-74
2023/02/08 09:54:42;;;;;;;14.30;11.73;;;;;;;16.87;28.08;102567.22;5019570;28;20427;-73
2023/02/08 09:57:14;;;;;;;13.83;11.77;;;;;;;15.52;28.66;102575.41;5019203;28;20858;-74
2023/02/08 09:59:49;;;;;;;13.77;12.20;;;;;;;15.30;29.28;102571.59;5020711;28;20484;-75
2023/02/08 10:02:23;;;;;;;16.53;13.20;;;;;;;16.13;29.10;102577.97;5020948;28;20451;-73
2023/02/08 10:04:57;;;;;;;16.40;12.63;;;;;;;17.46;27.82;102572.19;5021962;28;20424;-74
2023/02/08 10:07:25;;;;;;;16.20;12.40;;;;;;;17.34;27.06;102572.66;5021811;28;20456;-73
2023/02/08 10:09:53;;;;;;;14.87;12.17;;;;;;;17.42;27.46;102573.25;5020739;28;20500;-74
2023/02/08 10:12:29;;;;;;;14.10;12.37;;;;;;;17.66;27.25;102587.72;5020858;28;20456;-73
2023/02/08 10:15:05;;;;;;;14.60;12.10;;;;;;;15.70;28.33;102579.38;5021189;28;20429;-73
2023/02/08 10:18:06;;;;;;;16.10;12.40;;;;;;;16.26;28.36;102578.47;5019859;28;20496;-74
2023/02/08 10:20:44;;;;;;;15.73;12.60;;;;;;;17.61;27.56;102577.97;5014410;28;20512;-74
2023/02/08 10:23:23;;;;;;;14.53;12.43;;;;;;;17.54;26.96;102588.22;5018070;28;20515;-74
2023/02/08 10:26:09;;;;;;;15.93;12.83;;;;;;;18.27;26.35;102583.41;5015656;28;20435;-74
2023/02/08 10:28:56;;;;;;;14.43;11.40;;;;;;;17.68;26.40;102579.47;5013793;28;20999;-75
2023/02/08 10:31:38;;;;;;;13.60;12.20;;;;;;;16.62;27.92;102575.34;5015509;28;20436;-74
2023/02/08 10:34:19;;;;;;;15.50;13.00;;;;;;;16.54;27.75;102572.91;5015299;28;20451;-74
2023/02/08 10:36:45;;;;;;;15.83;13.20;;;;;;;17.48;27.00;102574.84;5015508;28;20500;-75
2023/02/08 10:39:26;;;;;;;14.17;12.67;;;;;;;17.32;27.02;102576.38;5014775;28;20476;-75
2023/02/08 10:41:53;;;;;;;15.23;13.17;;;;;;;17.19;27.44;102568.72;5015085;28;20535;-75
2023/02/08 10:44:30;;;;;;;19.50;16.50;;;;;;;18.93;26.02;102564.13;5014653;28;20531;-74
2023/02/08 10:47:09;;;;;;;18.17;13.93;;;;;;;19.78;25.34;102564.59;5018995;28;20465;-73
2023/02/08 10:49:44;;;;;;;14.33;11.90;;;;;;;19.98;25.28;102566.31;5019202;28;20518;-73
2023/02/08 10:52:11;;;;;;;14.13;12.00;;;;;;;20.25;24.48;102562.25;5020990;28;20431;-75
2023/02/08 10:54:38;;;;;;;14.87;12.57;;;;;;;20.69;24.37;102559.94;5018664;28;20519;-73
2023/02/08 10:57:13;;;;;;;14.53;13.03;;;;;;;18.88;25.67;102563.44;5017430;28;20538;-75
2023/02/08 10:59:48;;;;;;;16.60;12.77;;;;;;;19.24;25.49;102549.00;5025885;28;20439;-73
2023/02/08 11:02:23;;;;;;;16.57;13.53;;;;;;;20.37;24.69;102539.72;5027052;28;20424;-74
2023/02/08 11:05:05;;;;;;;15.20;12.37;;;;;;;20.50;24.70;102532.63;5018741;28;20433;-74
2023/02/08 11:07:33;;;;;;;13.17;11.73;;;;;;;21.36;24.18;102533.38;5016866;28;20473;-76
2023/02/08 11:10:22;;;;;;;14.47;12.57;;;;;;;20.30;24.05;102527.31;5017197;28;20493;-74
2023/02/08 11:12:57;;;;;;;14.27;12.77;;;;;;;19.63;24.43;102526.16;5018870;28;20488;-74
2023/02/08 11:15:27;;;;;;;14.13;12.63;;;;;;;19.61;24.79;102522.66;5018014;28;20443;-73
2023/02/08 11:17:59;;;;;;;16.07;13.33;;;;;;;19.74;24.30;102516.50;5018199;28;20479;-75